Sa, 23. Juni 2018 @ 19:32 (Europe/Berlin) | Zeitzone Wählen

Suche

Suche

Finde die Ligen und Manschaften schnell

Vergleich

Vergleich

Hier Klicken h2h um die Manschaften zu vergleichen und statistiken anzuzeigen

Spiele

Spiele

Schau dir die Heutige, Morgige, Gestrige Spiele mit Hilfe des Kalenders an


Gratis Tippen!

Spiele - 30.09.2017

Gruppierung: Nach Meisterschaften | Nach Zeit
Zeit Heim Ergebnis Gast 1 X 2 H2H
 Fußball Albanien Super League 2017/2018
14:00 Laci SK 2 : 0 Vllaznia Shkodër - - -
17:00 Flamurtari Vlorë 0 : 0 Luftëtari Gjirokastër - - -
 Fußball Argentinien Primera Division 2017/2018
00:05 Defensa y Justicia 0 : 0 Huracán 1.82 3.21 4.29
00:05 Union Santa Fe 2 : 0 Olimpo 1.78 3.23 4.44
02:05 Atlético Tucumán 0 : 0 Belgrano 2.12 2.90 3.45
19:05 San Lorenzo 0 : 0 Colon Santa Fe 1.70 3.30 4.81
21:05 Temperley 0 : 3 Estudiantes 3.60 2.85 2.08
23:05 Gimnasia L.P. 1 : 3 Lanus 2.48 2.81 2.88
 Fußball Belgien 1e Klasse 2017/2018
18:00 Eupen 3 : 3 Genk 3.68 3.46 1.94
20:00 Mouscron 2 : 2 Mechelen 2.11 3.24 3.36
20:00 Waasland 3 : 0 FC Antwerp 1.99 3.40 3.56
20:30 Kortrijk 1 : 2 Oostende 2.68 3.40 2.45
 Fußball Belgien 2e Klasse 2017/2018
17:00 Oud Heverlee 2 : 0 Roeselare 1.72 3.66 3.96
20:30 Tubize AFC 1 : 2 Westerlo 2.17 3.30 2.92
 Fußball Bosnien Premier Liga 2017/2018
16:00 Siroki Brijeg NK 1 : 0 Radnik Bijeljina 1.50 3.61 5.85
16:00 Vitez NK 0 : 3 Gabela GOSK 1.90 3.12 3.85
20:00 Zeljeznicar Sarajevo 0 : 1 Zrinjski Mostar 2.29 2.99 2.88
 Fußball Bulgarien A PFG 2017/2018
13:45 Etar Veliko Tarnovo 2 : 2 CSKA Sofia 6.90 4.07 1.41
16:45 Vitosha Bistritsa 2 : 4 Botev Plovdiv 5.69 3.74 1.60
19:00 Dunav Ruse 0 : 0 Pirin 1922 Blagoevgrad 1.80 3.31 4.10
 Eishockey CHL Kontinental Hockey League 2017/2018
11:30 Red Star Kunlun 2 : 1 Jekatěrinburg 2.27 3.97 2.67
13:30 Čeljabinsk 2 : 1 Barys Astana 2.37 3.85 2.58
16:00 Jaroslavl 2 : 3 Omsk 2.22 3.85 2.77
16:00 Sochi 2 : 3 ot Yugra Khanty-Mansiysk 1.58 4.45 4.73
 Handball CL Champions League M 2017/2018
15:00 Chehovski Medvedi Moskau 27 : 29 Besiktas Istanbul 1.80 9.00 2.40
16:00 Brestskiy HC Meshkovo 26 : 29 Veszprém 3.65 9.50 1.41
17:30 Metalurg Skopje 28 : 27 Sporting Lisboa CP 2.47 8.67 1.79
17:30 Flensburg-Handewitt 33 : 29 Paris Handball 3.30 9.50 1.49
19:00 Celje Pivovarna Lasko 31 : 27 Kielce Vive KS 5.25 12.00 1.24
19:30 Caja Espana Ademar 26 : 30 Elverum 1.11 16.33 8.75
 Handball Dänemark 1st League M 2017/2018
16:10 Sonderjyske 25 : 35 Bjerringbro FH 3.70 10.00 1.40
 Fußball Dänemark Superligaen 2017/2018
16:00 Hobro 1 : 1 Odense 2.40 3.21 2.91
 Fußball Deutschland 2. Liga 2017/2018
13:00 Nürnberg FC 1 : 2 Bielefeld 1.93 3.48 3.76
13:00 Holstein Kiel 3 : 0 Bochum 1.87 3.61 3.75
13:00 Aue Erzgebirge 1 : 2 Berlin Union 3.27 3.24 2.18
 Fußball Deutschland 3. Liga 2017/2018
14:00 W 0 : 2 Unterhaching 1.98 3.26 3.66
14:00 Bremen (Am.) 1 : 1 Chemnitzer 2.16 3.18 3.16
14:00 Rostock 1 : 0 Aalen VfR 2.32 3.07 3.06
14:00 Sonnenhof Grossaspach SG 1 : 3 Fortuna K 2.49 3.13 2.71
14:00 Erfurt 1 : 3 Wehen SV 3.86 3.17 1.95
14:00 Münster 4 : 1 Osnabrück 2.11 3.15 3.38
 Basketball Deutschland BBL M 2017/2018
18:00 Ulm 68 : 72 Alba Berlin 1.35 13.00 3.20
18:00 Göttingen BG 74 85 : 93 EWE Baskets Oldenburg 3.70 13.00 1.28
20:30 Avitos Giessen 53 : 87 Bayern M 13.00 16.00 1.01
20:30 Mitteldeutscher BC 82 : 69 Rockets Gotha 1.14 14.00 5.50
20:30 WiredMinds Tübingen 77 : 87 Bayreuth BBC 5.50 15.00 1.13
 Fußball Deutschland Bundesliga 2017/2018
15:30 Mönchengladbach 2 : 1 Hannover 96 1.70 3.86 4.75
15:30 Wolfsburg 1 : 1 Mainz 2.09 3.31 3.56
15:30 Augsburg FC 1 : 2 Dortmund 5.80 4.19 1.54
15:30 Frankfurt Eintracht 2 : 1 Stuttgart 2.01 3.34 3.78
18:30 Hamburg SV 0 : 0 Werder Bremen 2.63 3.26 2.67
 Fußball England Championship 2017/2018
16:00 Cardiff 0 : 0 Derby 1.94 3.42 3.86
16:00 Millwall 1 : 3 Barnsley 1.67 3.77 5.08
16:00 Burton 0 : 4 Wolverhampton 5.90 3.75 1.60
16:00 Middlesbrough 2 : 2 Brentford 1.85 3.56 4.19
16:00 Aston Villa 1 : 0 Bolton 1.39 4.41 8.80
16:00 Preston 2 : 2 Sunderland 1.83 3.52 4.28
16:00 Ipswich 1 : 3 Bristol City 2.82 3.31 2.46
16:00 Hull 6 : 1 Birmingham 1.94 3.31 4.10
16:00 Nottingham 2 : 1 Sheffield United 2.64 3.25 2.66
18:30 Reading 1 : 2 Norwich 2.63 3.20 2.65
 Fußball England Conference National 2017/2018
16:00 Bromley 0 : 1 Tranmere 3.74 3.26 1.90
16:00 Maidenhead United 3 : 0 Guiseley 1.71 3.57 4.20
16:00 Ebbsfleet United 2 : 0 Halifax 1.83 3.66 3.57
16:00 Barrow 0 : 1 Maidstone United 2.14 3.23 3.04
16:00 Macclesfield 2 : 0 Alderschot 2.58 3.16 2.48
16:00 Dover Athletic 1 : 0 Solihull 1.49 4.09 5.30
16:00 Wrexham 1 : 1 Sutton UTD 2.63 3.11 2.47
16:00 Leyton 1 : 2 Fylde 1.95 3.44 3.31
16:00 Dagenham & Redbridge 1 : 0 Torquay 1.44 4.13 6.05
16:00 Woking 1 : 1 Hartlepool 2.69 3.35 2.33
16:00 Gateshead 1 : 1 Boreham Wood 2.30 3.27 2.73
 Fußball England FA Cup 2017/2018
13:30 Ashton Athletic 0 : 1 Chorley 5.81 4.83 1.41
16:00 Folkestone 2 : 1 Aylesbury Utd. 1.43 4.59 6.05
16:00 Margate 2 : 0 Herne Bay 1.54 4.12 5.20
16:00 Concord Rangers 3 : 0 Dorking Wanderers 1.69 3.93 4.22
16:00 Enfield 3 : 0 Phoenix Sports 1.65 3.94 4.50
16:00 St. Albans 2 : 1 Bridport 1.15 7.15 13.60
16:00 Cinderford Town 2 : 3 Hampton Richmond 3.32 3.72 1.93
16:00 Stockport 3 : 3 FC United Of Manchester 1.59 3.86 5.12
16:00 Heybridge 2 : 1 Frome Town - - -
16:00 Basford United 2 : 3 Kettering 3.23 3.93 1.93
16:00 South Shields 3 : 2 York 2.98 3.58 2.13
16:00 Needham Market 1 : 6 Dartford 3.97 4.12 1.70
16:00 Oxford City 4 : 2 Leiston 2.45 3.68 2.48
16:00 Slough 2 : 1 Poole Town 2.14 3.70 2.85
16:00 Bath City 3 : 0 Hemel Hempstead Town 1.64 4.12 4.47
16:00 Boston Town 2 : 3 Hyde United 4.12 4.04 1.67
16:00 Stourbridge 3 : 1 Alfreton Town 2.82 3.66 2.18
16:00 Scarborough 2 : 2 Stratford Town 2.26 3.83 2.62
16:00 Leamington 0 : 0 Gainsborough 2.11 3.54 3.08
16:00 Haringey Borough 4 : 1 Bideford - - -
16:00 Newcastle Benfield 0 : 1 Kidderminster 4.56 4.20 1.60
16:00 Burgess Hill Town 1 : 0 Wealdstone 2.81 3.74 2.17
16:00 Eastbourne 0 : 2 Bognor Regis Town 1.71 4.06 3.96
16:00 Chelmsford City 2 : 1 Weymouth 1.47 4.66 5.40
16:00 Hereford 2 : 0 Hornchurch 1.55 4.17 4.95
16:00 Hayes 0 : 4 Havant & W 4.67 4.10 1.59
16:00 Brackley Town 4 : 1 Braintree Town 1.79 3.70 3.95
16:00 Buxton 2 : 1 Alvechurch 1.84 3.93 3.52
16:00 Banbury United 2 : 3 Shildon 1.58 4.22 4.65
16:00 Stafford Rangers 1 : 1 Telford 2.95 3.93 2.04
16:00 Ashford Town 1 : 2 Leatherhead 3.56 3.98 1.81
16:00 Truro City 4 : 1 Sudbury 1.18 6.95 11.40
16:00 East Thurrock United 2 : 2 Harlow Town 1.36 4.70 7.50
16:00 Swindon Supermarine 2 : 3 Paulton Rovers 1.62 4.10 4.50
16:00 Hungerford Town 1 : 1 Billericay Town 2.75 3.70 2.20
16:00 AFC Mansfield 0 : 2 Boston Utd. 4.16 4.14 1.65
16:00 Shaw Lane Aquaforce 2 : 1 Lancaster 1.84 3.65 3.72
16:00 Nantwich Town 3 : 1 Nuneaton Town 2.75 3.56 2.24
16:00 Harrogate Town 0 : 0 Bradford Park Avenue 1.58 3.90 5.25
16:00 Northwich 1874 2 : 2 Ossett Town 2.69 4.08 2.12
 Fußball England League One 2017/2018
16:00 Peterborough 1 : 4 Oxford 1.92 3.58 3.66
16:00 Bradford 2 : 0 Doncaster 2.08 3.39 3.36
16:00 Shrewsbury 2 : 0 Scunthorpe 2.55 3.26 2.66
16:00 Fleetwood Town 1 : 3 Charlton 2.56 3.30 2.61
16:00 AFC Wimbledon 0 : 0 Rochdale 2.46 3.21 2.80
16:00 Rotherham 1 : 0 Northampton 1.69 3.64 4.83
16:00 Bury 0 : 2 Milton Keynes 2.53 3.26 2.67
16:00 Wigan 2 : 0 Walsall 1.50 4.10 6.05
16:00 Portsmouth 1 : 2 Oldham 1.51 3.94 6.35
16:00 Bristol Rovers 2 : 1 Plymouth 1.65 3.86 4.77
16:00 Blackburn 1 : 0 Gillingham 1.40 4.43 7.50
16:00 Southend 2 : 1 Blackpool 2.11 3.37 3.27
 Fußball England League Two 2017/2018
14:00 Mansfield 3 : 1 Notts County 2.22 3.14 3.23
14:00 Grimsby 0 : 0 Lincoln 3.44 3.16 2.12
16:00 Yeovil 0 : 1 Colchester 2.72 3.32 2.44
16:00 Luton 3 : 1 Newport 1.84 3.53 3.99
16:00 Coventry 1 : 0 Crewe 1.65 3.62 5.18
16:00 Wycombe 3 : 1 Barnet 2.01 3.38 3.56
16:00 Forest Green 0 : 1 Accrington Stanley 3.57 3.45 1.96
16:00 Chesterfield 0 : 2 Cheltenham 3.05 3.33 2.15
16:00 Swindon 2 : 0 Cambridge 2.46 3.22 2.77
16:00 Exeter 4 : 1 Morecambe 1.69 3.70 4.61
16:00 Stevenage 2 : 0 Port Vale 2.07 3.24 3.56
16:00 Crawley Town 0 : 1 Carlisle 2.75 3.31 2.42
 Fußball England Premiership 2017/2018
13:30 Huddersfield 0 : 4 Tottenham 8.60 4.53 1.40
16:00 West Bromwich 2 : 2 Watford 2.10 3.24 3.75
16:00 Stoke 2 : 1 Southampton 2.87 3.28 2.51
16:00 Manchester United 4 : 0 Crystal Palace 1.18 6.95 15.80
16:00 West Ham 1 : 0 Swansea 1.81 3.52 4.68
16:00 Bournemouth 0 : 0 Leicester 2.53 3.38 2.79
18:30 Chelsea 0 : 1 Manchester City 2.64 3.38 2.63
 Eishockey Finnland Mestis 2017/2018
16:00 LeKi 2 : 3 ot Tuto Turku 3.55 4.65 1.65
16:00 Hermes Kokkola 4 : 5 HeKi Heinolan 1.57 4.92 3.82
16:00 Iisalmen Peli-Karhut 3 : 2 SaPKo Savonlinnan 2.88 4.38 1.90
16:00 Jokipojat Joensuu 2 : 1 RoKi Rovaniemi 1.66 4.65 3.55
16:00 Kiekko-Vantaa 4 : 5 KeuPa HT 2.07 4.39 2.60
 Eishockey Finnland SM Liiga 2017/2018
16:00 Kärpät 4 : 3 Ilves Tampere 1.65 4.33 4.23
16:00 Jyp Jyväskylä 4 : 1 Hämeenlinna 1.65 4.28 4.23
16:00 Saipa 3 : 2 Tappara Tampere 4.00 4.17 1.71
16:00 Jukurit Mikkeli 4 : 3 Sport Vaasa 2.25 3.90 2.70
16:00 Lahti Pelicans 1 : 0 Kalpa Kuopio 1.64 4.33 4.20
16:00 IFK Helsinki 5 : 1 KooKoo Kouvola 1.69 4.27 4.03
17:30 TPS Turku 1 : 2 ot(p) Lukko Rauma 1.84 4.12 3.43
 Handball Frankreich D1M 2017/2018
20:30 Saint-Raphaël 25 : 26 Nantes HBC 2.68 7.83 1.69
 Fußball Frankreich Ligue 1 2017/2018
17:00 Paris SG 6 : 2 Bordeaux 1.14 8.20 15.80
20:00 Guingamp 1 : 1 Toulouse 1.80 3.39 4.77
20:00 Dijon 1 : 1 Strasbourg 2.14 3.28 3.46
20:00 Nantes 1 : 0 Metz 1.63 3.54 6.05
20:00 Rennes 0 : 1 Caen 1.83 3.30 4.70
 Fußball Frankreich Ligue 2 2017/2018
15:00 Reims 1 : 0 Clermont 1.69 3.41 4.95
 Fußball Frankreich National 2017/2018
15:00 Rodez 2 : 0 Lyon Duchere 2.01 3.07 3.50
 Basketball Frankreich Pro A M 2017/2018
18:30 Le Mans 73 : 58 Pau Orthez 1.50 12.00 2.65
19:30 Hyeres Toulon 85 : 70 Limoges CSP 2.40 12.00 1.58
20:00 Elan Chalon 77 : 79 Paris-Levallois 1.68 12.00 2.20
20:00 Villeurbanne Asvel Lyon 77 : 59 Cholet Basket 1.13 14.00 5.75
 Basketball Frankreich Pro A W 2017/2018
13:00 Roche Vendee 62 : 72 Mondeville USO Basket 1.44 - 2.55
15:30 Landes Basket 53 : 67 Union Hainaut 1.14 - 4.78
18:30 Lyon 74 : 45 Tarbes Gespe Bigorre 1.38 - 2.75
21:00 Montpellier AB 83 : 73 Charleville 1.71 - 1.98
 Fußball Griechenland Super League 2017/2018
15:00 Platanias 0 : 3 Panetolikos 2.51 2.80 3.27
17:15 Panathinaikos Athens 2 : 0 Yiannina 1.58 3.60 6.38
19:30 Larissa AE 1 : 1 PAOK Saloniki 14.55 4.93 1.27
 Fußball Holland Eredivisie 2017/2018
18:30 NAC Breda 0 : 1 ADO den Haag 2.21 3.29 3.14
19:45 PSV Eindhoven 4 : 0 Willem Tilburg 1.17 6.85 13.20
19:45 Zwolle FC 3 : 2 Groningen 1.91 3.58 3.55
20:45 Excelsior 0 : 2 Venlo VVV 2.29 3.22 3.02
 Basketball Italien A1 M 2017/2018
20:45 Pallacanestro Trento 78 : 74 Virtus Bologna 1.52 13.00 2.55
 Fußball Italien Serie A 2017/2018
18:00 Udinese 4 : 0 Sampdoria Genoa 2.52 3.25 2.85
20:45 Genoa FC 0 : 1 Bologna 2.21 3.18 3.40
 Fußball Italien Serie B 2017/2018
15:00 Cittadella 0 : 1 Entella 1.64 3.53 5.25
15:00 Ascoli 0 : 0 Palermo 3.00 2.98 2.41
15:00 Carpi 0 : 1 Pescara 2.22 3.28 3.04
15:00 Spezia 1 : 0 Bari 2.33 2.86 3.19
15:00 Brescia 2 : 1 Perugia 2.99 2.99 2.37
15:00 Ternana 2 : 3 Venezia AC 2.59 2.90 2.80
15:00 Pro Vercelli 5 : 2 Cesena 2.24 2.86 3.41
15:00 Avellino 3 : 2 Empoli AC 2.89 3.05 2.41
 Fußball Kroatien 1. HNL 2017/2018
17:00 Cibalia Vinkovci 2 : 5 Dinamo Zagreb 11.50 5.45 1.23
19:00 Hajduk Split 2 : 0 INKER Zaprešič 1.20 5.88 11.38
 Handball Kroatien 1.liga M 2017/2018
18:00 Varteks Di Caprio 25 : 29 Zamet - - -
18:30 Metalac 26 : 22 Umag - - -
19:00 Poreč 22 : 20 Karlovac - - -
 Basketball Litauen 1st League M 2017/2018
16:15 Lietuvos Rytas 78 : 54 Alytus Alita 1.02 15.00 9.75
 Fußball Mazedonien First League 2017/2018
15:00 Renova FK 0 : 0 Pobeda Prilep 1.67 3.40 4.50
15:00 Pelister Bitola 1 : 3 Shkendija 79 Tetovo 4.00 3.30 1.80
15:00 Skopje FK 0 : 0 Rabotnički 3.00 3.15 2.20
15:00 Sileks Krakovo 1 : 0 Akademija Pandev 1.68 3.25 4.80
 Fußball Mexiko Primera Division 2017/2018
02:00 Atl. Morelia 3 : 0 Tijuana Xoloitzcuintles 2.23 3.27 2.89
04:00 Atlas 2 : 0 Veracruz 1.88 3.42 3.69
 Fußball Montenegro Prva Liga 2017/2018
13:00 Zeta Golubovci 0 : 0 Rudar Plevlja 1.87 3.23 3.87
15:00 Mladost Podgorica FK 2 : 1 Grbalj Radanovici FK 1.49 3.69 6.38
15:00 Kom Podgorica 2 : 1 Petrovac OFK 1.94 3.18 3.66
15:00 Iskra Danilovgrad 4 : 1 Decic Tuzi FK 1.44 3.77 7.00
 Eishockey Norwegen Eliteserien 2017/2018
16:00 Stavanger 3 : 4 ot(p) Valerenga Oslo 1.51 5.17 4.30
16:00 Kongsvinger 1 : 6 Storhamar 12.50 10.25 1.11
16:00 Stjernen 2 : 1 Lorenskog 1.83 4.50 3.13
 Fußball Österreich Bundesliga 2017/2018
16:00 St. Pölten 0 : 3 Sturm Graz 3.84 3.48 1.87
18:30 Mattersburg SV 0 : 1 Rapid Wien 4.07 3.45 1.83
18:30 Fc Admira 4 : 2 LASK Linz 2.94 3.20 2.36
 Eishockey Österreich Eishockey Liga 2017/2018
19:15 Innsbruck 7 : 1 Znojmo 2.18 4.28 2.53
 Handball Österreich HLA M 2017/2018
18:00 Schwaz 28 : 26 HSG Graz 1.09 14.67 8.83
19:00 Ferlach 30 : 30 HC Sb 1.15 12.33 6.62
20:25 West Wien 31 : 29 Austria Fivers Aon 2.20 8.33 1.91
 Handball Polen 1.liga M 2017/2018
13:00 Zabrze KS 36 : 23 Gwardia Opole 1.45 9.00 3.30
14:00 Spojnia Gdynia 24 : 18 Pogon Szczecin 2.83 8.67 1.59
18:30 Kalisz MKS 25 : 21 Elblag Darad 2.40 8.50 1.77
19:00 Legionowo KPR 26 : 31 Wybrzeze Gdansk 2.93 8.50 1.56
 Fußball Polen Ekstraklasa 2017/2018
15:30 Lechia Gdaňsk 1 : 0 Zaglebie Lubin 2.22 3.12 3.19
18:00 Pogon Szczecin 0 : 0 Korona Kielce 2.14 3.24 3.21
20:30 Wisla Kraków 0 : 0 Jagiellonia Bialystok 2.48 3.09 2.83
 Basketball Polen Ekstraklasa W 2017/2018
17:00 Bydgoszcz Baton 94 : 64 Torun 1.35 - 2.90
17:00 Sosnowiec KS 81 : 86 Ostrovia Ostr 1.35 - 2.90
18:15 Wisla Krakow TS 92 : 43 Widzew Lodz - - -
 Basketball Polen Ekstraliga M 2017/2018
16:00 Trefl Sopot 77 : 84 Zastal Zielona Góra 3.60 13.00 1.25
18:00 Krosno 82 : 76 Gliwice GTK 1.42 13.00 2.70
18:30 Prokom Trefl Sopot 81 : 77 ot Czarni Słupsk 1.85 11.00 1.95
 Fußball Polen I Liga 2017/2018
17:00 Stomil Olsztyn 1 : 3 Rakow Czestochowa 3.14 3.23 2.16
18:00 Chrobry G 2 : 0 Odra Opole 1.83 3.48 3.76
18:00 Tychy GKS 2 : 3 Pogo 1.96 3.25 3.52
18:00 Podbeskidzie Bielsko-Biała 2 : 1 Puszcza Niepo 2.07 3.20 3.27
18:00 Stal Mielec 1 : 1 Zaglebie Sosnowiec 2.09 3.29 3.12
18:00 Bytovia Bytów 1 : 2 Katowice GKS 1.97 3.19 3.52
 Fußball Portugal Liga Sagres 2017/2018
17:00 Portimonense 2 : 2 Aves 2.01 3.16 3.74
17:00 Ferreira 3 : 2 Moreirense 2.20 2.98 3.40
19:15 Boavista Porto 1 : 0 Feirense 1.98 3.04 3.97
21:30 Rio Ave 2 : 1 Setúbal 1.82 3.20 4.54
 Fußball Portugal Liga Vitalis 2017/2018
17:00 Real 1 : 1 Famalicao 2.59 2.95 2.69
17:00 Viseu 4 : 1 Porto FC B 2.01 3.19 3.47
17:00 Gil Vicente 3 : 0 Guimaraes B 1.82 3.24 4.15
17:00 Varzim 0 : 1 Oliveirense UD 1.85 3.19 4.10
17:00 Covilha 1 : 0 Arouca 2.63 2.82 2.76
17:00 Madeira 0 : 0 Peňafiel 1.93 3.03 3.94
17:00 Cova Piedade 2 : 0 Leixoes DC 2.45 2.99 2.81
18:00 Sporting Lisabon B 4 : 3 Santa Clara 2.77 3.02 2.48
18:00 Coimbra 1 : 2 Benfica Lisabon B 1.93 3.19 3.78
 Fußball Rumänien Liga I 2017/2018
17:00 Viitorul Constanta 5 : 2 CSMS Iasi 1.64 3.40 5.45
19:30 Dinamo Bucureşti 1 : 1 Astra Ploiesti 1.80 3.43 4.21
 Fußball Rumänien Liga II 2017/2018
10:00 Pitesti SCM 0 : 0 Chindia Targoviste 2.23 3.25 2.87
10:00 Damila Maciuca 0 : 0 Batrana Doamna UTA 3.47 3.40 1.92
10:00 Ripensia Timisoara 0 : 1 Mioveni 2.02 3.33 3.20
10:00 Luceafarul Oradea 0 : 0 Hermannstadt Sibiu 5.07 4.07 1.52
10:00 Pandurii 0 : 1 Olimpia Satu Mare 1.64 3.57 4.63
10:00 Rapid Suceava 2 : 1 Balotesti 2.12 3.40 2.88
10:00 Stiinta Miroslava 0 : 0 Afumati 2.57 3.23 2.48
10:00 Dacia Unirea Braila 2 : 1 Metaloglobus Bukure 2.75 3.35 2.27
15:00 ASU Poli Timisoara 0 : 1 Dunarea Calarasi 2.47 3.25 2.54
 Fußball Russland Premier League 2017/2018
10:30 SKA Chabarovsk 2 : 1 Rostselmash Rostov 5.65 3.15 1.70
13:00 Tosno 1 : 0 Terek Groznyj 2.91 2.97 2.48
15:30 Rubin Kazan 0 : 1 Amkar Perm 1.65 3.39 5.50
18:00 Spartak Moskva 2 : 0 Ural Sverdlovskaya Oblast 1.48 4.05 6.13
 Fußball Schotland First Division 2017/2018
16:00 Livingston 2 : 1 Dumbarton 1.46 4.10 5.74
16:00 Caledonian Thistle 0 : 0 Queen of the South 2.47 3.19 2.60
16:00 St. Mirren 2 : 1 Brechin 1.26 5.10 9.30
16:00 Dunfermline 1 : 3 Dundee Utd. 2.25 3.21 2.92
16:00 Greenock Morton 0 : 1 Falkirk FC 2.33 3.29 2.70
 Fußball Schotland Premier League 2017/2018
16:00 Kilmarnock FC 0 : 2 Ross County 2.64 3.19 2.60
16:00 Dundee FC 2 : 1 Hearts of Midlothian 3.62 3.28 2.01
16:00 Celtic Glasgow 2 : 2 Hibernian 1.23 6.00 10.45
16:00 Motherwell FC 3 : 0 Partick Thistle 2.07 3.21 3.49
16:00 Aberdeen FC 3 : 0 St. Johnstone 1.55 3.90 5.70
 Fußball Schotland Scottish Cup 2017/2018
16:00 Rothes 1 : 3 Edusport Academy - - -
16:00 Stirling University 1 : 0 Wick Academy FC - - -
 Fußball Schotland Second Division 2017/2018
16:00 Albion Rovers 2 : 1 Raith Rovers 4.80 3.88 1.58
16:00 Forfar 1 : 1 Stranraer 2.63 3.42 2.30
16:00 Airdrieonians 4 : 2 Queen's Park FC 2.15 3.41 2.94
16:00 Ayr. United 3 : 0 East Fife 1.49 4.10 5.54
16:00 Arbroath 1 : 1 Alloa 1.75 3.62 3.87
 Fußball Schotland Third Division 2017/2018
16:00 Stirling Albion 2 : 2 Elgin 1.88 3.68 3.30
16:00 Annan Athletic 1 : 0 Cowdenbeath 1.81 3.52 3.72
16:00 Stenhousehuir 3 : 0 Edinburgh City 1.53 3.94 5.00
16:00 Peterhead 0 : 2 Berwick 1.38 4.53 6.65
16:00 Montrose 3 : 2 Clyde 2.47 3.38 2.46
 Fußball Schweiz Challenge League 2017/2018
19:00 Rapperswil-Jona 5 : 0 Schaffhausen FC 4.53 3.88 1.61
19:00 Wohlen FC 3 : 2 Winterthur 2.71 3.27 2.36
 Eishockey Schweiz Nationalliga A 2017/2018
19:45 SC Curych 3 : 0 Kloten 1.46 5.20 5.00
19:45 Biel Bienne EHC 6 : 2 Ambri Piota 1.64 4.77 3.83
19:45 Zug 3 : 6 Bern 2.48 4.25 2.28
19:45 Lugano 3 : 1 Langnau 1.54 4.88 4.40
19:45 Davos 3 : 0 Fribourg 1.97 4.47 2.90
 Eishockey Schweiz Nationalliga B 2017/2018
17:30 Winterthur 4 : 5 ot Chaux de Fonds 3.43 4.92 1.63
17:30 Olten 1 : 3 Rapperswill 2.28 4.43 2.25
17:45 Visp 4 : 3 GCK Lions 1.60 4.92 3.57
20:00 Biasca 0 : 5 Langenthal 5.25 5.75 1.35
 Fußball Schweiz Super League 2017/2018
19:00 Grasshoppers Zürich 0 : 0 FC Basel 4.34 3.57 1.74
 Fußball Serbien Super Liga 2017/2018
15:00 Ma 1 : 1 Ba 1.77 3.25 4.32
17:00 Spartak Zlatibor Voda 4 : 2 Radnički Niš 1.94 3.11 3.78
17:00 Vozdovac Beograd 6 : 1 Zemun 1.53 3.46 6.60
17:00 Borac Cacak 3 : 1 Radnik Surdulica 2.10 3.04 3.43
17:00 Javor Ivanjica 3 : 2 Rad Bělehrad 1.71 3.28 5.10
 Fußball Slovenien 1. SNL 2017/2018
15:00 Ankaran 0 : 3 Rudar Velenje 4.85 3.56 1.65
17:00 Krsko Posavje 2 : 0 Aluminij Kidricevo 2.24 3.18 2.88
20:20 Maribor Branik NK 0 : 0 Triglav 1.24 5.14 9.85
 Handball Slovenien 1.liga M 2017/2018
19:00 Cimos Koper 32 : 29 Termo Škofja Loka - - -
19:00 Šmartno 99 RD 29 : 39 Adria Krka - - -
19:00 Ribnica 26 : 16 Maribor RK - - -
 Fußball Slovenien 2. SNL 2017/2018
14:00 Bravo Publikum 1 : 2 Krka 1.85 3.75 3.30
15:30 Roga 2 : 4 Drava Ptuj - - -
15:30 Dob Roltek 1 : 2 Tabor - - -
 Handball Slowakei Extraliga M 2017/2018
16:00 Pre 34 : 20 Modra Slovan - - -
18:00 Prešov 48 : 18 Nové Zámky - - -
18:00 Považská Bystrica 32 : 21 Malacky - - -
18:00 Bratislava 28 : 24 Hlohovec - - -
 Fußball Slowakei Super Liga 2017/2018
17:15 Trnava 2 : 0 Dunajská Streda 2.23 3.19 2.94
19:00 Žilina 2 : 1 Michalovce 1.19 6.00 9.95
19:00 Slovan Bratislava 1 : 1 Nitra 1.30 4.81 7.85
19:00 Podbrezova 1 : 0 Senica SH 1.44 3.91 6.45
20:00 Trenčín 3 : 0 Zlaté Moravce 1.31 5.03 7.20
 Basketball Spanien 1st League W 2017/2018
11:00 Campus Promete Logrono 55 : 83 Extremadura Badajoz 1.86 - 1.80
13:15 Girona 71 : 53 Bembibre PDM 1.11 - 5.63
18:00 Salamanca Halcon 82 : 58 Estudiantes - - -
20:15 Bizkaia Ibaizabal 73 : 80 Sant Adria 1.14 - 4.72
 Basketball Spanien ACB M 2017/2018
19:30 Fuenlabrada Baloncesto 82 : 68 Bilbao Basket 1.45 13.00 2.80
20:00 Obradoiro CAB 80 : 74 Zaragoza CAI 1.40 13.00 2.95
 Handball Spanien Asobal M 2017/2018
17:00 SD Teucro 26 : 27 Granollers BM 2.48 8.33 1.77
17:00 Puerto Sagunto CB 20 : 23 Anaitasuna Helvetia 2.47 8.33 1.78
17:00 Darien Logrono 29 : 33 Cuenca Ciudad Encantada 1.35 10.00 4.07
18:30 Angel Ximenez 23 : 18 Zamora 1.25 11.33 5.05
18:30 Benidorm 24 : 27 CD Bidasoa 1.32 9.83 4.47
20:00 Huesca BM 27 : 28 Rayet Guadalajara 1.26 12.00 4.63
20:00 Valladolid BM 23 : 22 Frig. Morrazo Cangas 1.16 13.00 6.50
 Fußball Spanien La Liga 2017/2018
13:00 Deportivo La Coruna 2 : 1 Getafe 2.16 3.34 3.33
16:15 FC Sevilla 2 : 0 Fc Malaga 1.40 4.65 8.00
18:30 Levante 0 : 2 Alavés 1.79 3.45 4.83
20:45 Leganes 0 : 0 Atletico Madrid 5.94 3.29 1.71
 Fußball Spanien Liga BBVA 2017/2018
16:00 Valladolid 4 : 1 Cordoba 1.79 3.42 4.27
18:00 Numancia 5 : 1 Albacete 1.78 3.33 4.38
20:00 Lorca 3 : 0 Cádiz FC 2.75 2.94 2.56
 Fußball Spanien Segunda B - Group I 2017/2018
17:00 Cerceda 0 : 0 Celta Vigo B 3.06 3.18 2.10
21:00 Real Madrid B 0 : 0 Guijuelo 1.58 3.52 5.10
 Fußball Spanien Segunda B - Group II 2017/2018
16:00 Amorebieta 3 : 1 Arenas de Getxo 2.11 3.12 3.19
17:00 Izarra 0 : 0 Santander 4.27 3.37 1.72
17:00 Osasuna B 1 : 1 Tudelano 2.28 3.02 2.87
18:00 Leioa 3 : 0 Pena Sport CD 1.45 3.84 6.10
 Fußball Spanien Segunda B - Group III 2017/2018
17:00 Saguntino 1 : 1 Elche FC 3.98 3.41 1.78
18:00 Ontinyent 0 : 1 Lleida 2.45 2.90 2.76
18:00 Llagostera 2 : 2 Valencia FC B 2.65 2.98 2.51
 Eishockey Sweden Allsvenskan 2017/2018
18:00 Modo 4 : 3 ot Leksand IF 2.15 4.02 2.78
18:00 Almtuna IS 2 : 3 ot Oskarshamn 2.38 4.05 2.45
 Eishockey Sweden Elitserien 2017/2018
15:15 Örebro HK 1 : 2 Brynas Gavle 2.33 4.00 2.57
15:15 Lulea HF 3 : 4 ot Linköpings 2.43 3.93 2.48
15:15 Djurgarden IF 4 : 2 Skelleftea AIK 2.48 3.97 2.43
15:15 Rogle BK 8 : 7 ot Malmo IF 3.70 4.39 1.75
18:00 Vaxjö Lakers HC 3 : 1 Frolunda 2.35 4.00 2.53
18:00 Mora IK 2 : 5 Farjestad 3.38 4.15 1.87
18:00 Karlskrona HK 0 : 1 HV 71 3.28 4.08 1.92
 Handball Sweden Elitserien M 2017/2018
16:00 Sävehof IK 25 : 24 Skövde HK IFK 1.19 12.67 5.78
 Fußball Tschechei 1. liga 2017/2018
17:00 Slovácko 1. FC 0 : 0 Karviná FC 1.82 3.32 4.06
20:00 Dukla Praha FK 0 : 0 Sparta Praha 3.95 3.18 1.90
 Eishockey Tschechei 1st League 2017/2018
16:00 Kladno 3 : 4 ot(p) P 1.44 4.93 4.60
16:00 Karlovy Vary 3 : 0 Litoměřice 1.39 5.33 4.98
17:00 Ústí n. Labem 1 : 2 Slavia Praha 2.17 4.23 2.43
17:00 Fr 4 : 1 Prostějov 1.51 4.75 4.23
17:00 Benátky 3 : 5 Kadaň 1.36 5.47 5.37
17:30 Vsetín 1 : 4 České Budějovice 3.05 4.38 1.80
17:30 Třebíč 4 : 2 Havířov 2.07 4.23 2.58
 Fußball Tschechei 2. liga 2017/2018
10:15 Třinec 2 : 1 Znojmo 1.87 3.40 3.50
16:00 Příbram 2 : 1 Frýdek-Místek VP 1.35 4.26 7.40
16:00 Sezimovo Ústí 0 : 3 Pardubice Tesla 2.22 3.12 2.94
 Handball Tschechei Extraleague M 2017/2018
16:30 Dukla Praha 23 : 20 Zubří 1.45 9.00 3.30
17:00 Brno 31 : 28 Jičín 1.57 8.50 2.90
17:00 Nov 25 : 17 Lovosice 2.25 8.50 1.85
18:00 Kopřivnice 30 : 21 Strakonice 1.07 16.00 9.75
 Fußball Türkey Super League 2017/2018
13:00 Sivasspor 3 : 1 Antalyaspor 2.50 3.24 2.69
13:00 Ankaraspor BB 3 : 0 Kasimpasa SK Istanbul 1.95 3.64 3.47
15:30 Kayserispor II 3 : 1 Bursaspor 2.00 3.44 3.50
18:30 Galatasaray 3 : 2 Karabukspor 1.26 5.69 9.56
 Fußball Ukraine Premier League 2017/2018
13:00 Donetsk Olimpic 3 : 2 Illichivets Mariupol 2.56 2.98 2.70
16:00 Oleksandrija FK 0 : 0 Zirka Kirovohrad 1.59 3.35 5.79
 Basketball Ungarn 1st League W 2017/2018
18:00 Bajai NKK 64 : 97 SEAT - Foton Győr - - -
18:00 Ceglédi EKK 85 : 65 MiZo Pécs - - -
18:00 Atomeromu KSC Szekszárd 93 : 53 Budapest BSE - - -
 Fußball Ungarn NB I 2017/2018
18:00 Balmaz 2 : 3 Ferencvárosi TC 4.05 3.58 1.75
18:00 Puskás Akadémia 1 : 2 Paksi FC 1.71 3.53 4.37
18:00 Szombathelyi Haladás 2 : 2 Mezokovesd Zsory 1.80 3.48 3.95
18:00 Újpest Budapest 1 : 1 Debrecen 2.09 3.24 3.22
18:00 Diósgyőri VTK 2 : 3 Fc Fehérvár 3.06 3.28 2.16
20:30 Budapest Honvéd 1 : 4 Vasas Budapest 1.85 3.44 3.77
 Fußball Ungarn NB II 2017/2018
15:00 Szolnok 1 : 0 BFC Siófok 1.57 3.74 4.75
 Fußball Wales Premier League 2017/2018
15:30 Llandudno 1 : 2 Newi Cefn Druids 1.90 3.48 3.49
15:30 Bangor City 0 : 1 Barry Town 1.56 3.81 4.80
15:30 Carmarthen Town 0 : 5 Llansantffraid 7.75 5.27 1.28
15:30 Cardiff MU 2 : 1 Prestatyn Town 1.59 3.90 4.65
18:15 Newtown AFC 0 : 1 Connah's Quay 2.70 3.39 2.26